Airfield :
LOGIN :

Register | Disclaimer

   EN    FR    IT 

 










Legend :    VFR   Marginal VFR   IFR   Intensive IFR   Very Intensive IFR
Visi :
Ceiling :
>= 8 km
>= 3000ft
5 to 8 km
1000 to 3000 ft
1500m to 5 km
500 to 1000 ft
800 to 1500m
200 to 500 ft
< 800m
< 200 ft
Symbols :   Thunderstorms  Fog  Heavy snow  Heavy precipitations  Wind > 20 kt
SIGMETs :     Misc.  Thunderstorms  Icing  Turbulence  Mountain Waves  Volcanic Ashes






- Airport Elevation : 1416 ft
- IATA code : ZRH


LSZH - Zurich

CURRENT METAR :
  • 181150Z VRB03KT 9999 FEW025 BKN100 15/11 Q1014 NOSIG

EXPIRED METARs :
  • 181120Z VRB03KT 9999 FEW022 BKN095 15/11 Q1014 NOSIG
  • 181050Z 15004KT 9999 FEW015 BKN090 14/12 Q1015 NOSIG
  • 181020Z 22005KT 190V260 9999 FEW015 BKN090 14/12 Q1015 NOSIG
  • 180950Z 19004KT 9999 FEW050 BKN090 13/12 Q1015 NOSIG
  • 180920Z 11005KT 090V190 9999 -RA FEW055 BKN080 13/11 Q1014 NOSIG

TAF TAF LSZH
Valid from the 18 at 12:00 until the 19 at 18:00 UTC


181125Z 1812/1918 15005KT 9999 FEW020 BKN090 TX17/1814Z TN10/1905Z TX15/1915Z
TEMPO 1812/1814 CAVOK
PROB40
TEMPO 1813/1816 30010KT
TEMPO 1817/1822 SHRA SCT040TCU
PROB40
TEMPO 1907/1910 4500 RA
ATIS : +41 43 816 2295 (DEP) +41 43 816 2294 (ARR)



MET'MAP, your aeronautical weather chart ! - Copyright ORBIFLY December 2007 - Disclaimer

ORBIFLY MET'MAP TEAM :

Programming & Development : Alexandra Zaïnal
Concept & Development : Baudouin d'Aumeries
Co-Development & Prog : Marc-Olivier Méhu
Technical & hardware support : Manuel Goepfert

Contact : metmap@orbifly.com




SOURCES & CREDITS :

   NOAA